Time;durP1;ratioP1;P1;durP2;ratioP2;P2;SDS_P1;SDS_P2;PMS_P1;PMS_P2;Temp;Humidity;BMP_temperature;BMP_pressure;BME280_temperature;BME280_humidity;BME280_pressure;Samples;Min_cycle;Max_cycle;Signal;HPM_P1;HPM_P2
2022/01/05 00:05:03;;;;;;;0.60;0.40;;;;;;;6.71;67.78;96021.56;12812249;23;20056;-78
2022/01/05 00:10:24;;;;;;;1.05;0.50;;;;;;;6.72;67.69;96026.50;12799767;23;20051;-78
2022/01/05 00:15:45;;;;;;;0.82;0.50;;;;;;;6.76;67.50;96031.56;12820204;23;20071;-79
2022/01/05 00:21:05;;;;;;;4.07;0.70;;;;;;;6.73;67.48;96038.31;12799112;23;20344;-78
2022/01/05 00:26:27;;;;;;;1.00;0.45;;;;;;;6.69;67.67;96033.28;12820722;23;20017;-78
2022/01/05 00:31:48;;;;;;;0.75;0.40;;;;;;;6.69;67.70;96029.78;12820267;23;20023;-78
2022/01/05 00:37:09;;;;;;;1.17;0.47;;;;;;;6.68;68.05;96020.03;12820820;23;20017;-78
2022/01/05 00:42:30;;;;;;;1.27;0.47;;;;;;;6.67;67.89;96041.50;12808733;23;20312;-78
2022/01/05 00:47:50;;;;;;;1.35;0.63;;;;;;;6.68;67.78;96036.66;12832070;23;20086;-78
2022/01/05 00:53:12;;;;;;;1.13;0.32;;;;;;;6.67;67.91;96013.03;12823845;23;20051;-78
2022/01/05 00:58:33;;;;;;;1.25;0.70;;;;;;;6.67;67.71;96007.50;12822411;23;20092;-78
2022/01/05 01:03:54;;;;;;;1.20;0.50;;;;;;;6.61;67.88;96043.91;12823309;23;20040;-78
2022/01/05 01:09:15;;;;;;;1.10;0.40;;;;;;;6.59;68.04;95996.69;12843892;23;20431;-78
2022/01/05 01:14:36;;;;;;;1.92;0.68;;;;;;;6.55;68.13;95977.03;12824108;23;20017;-78
2022/01/05 01:19:57;;;;;;;0.85;0.30;;;;;;;6.40;68.34;95991.47;12843967;23;20024;-78
2022/01/05 01:25:18;;;;;;;1.50;0.40;;;;;;;6.20;68.62;95980.00;12822169;23;20500;-79
2022/01/05 01:30:39;;;;;;;1.02;0.32;;;;;;;6.02;68.92;95985.94;12822710;23;20444;-79
2022/01/05 01:36:00;;;;;;;1.15;0.50;;;;;;;5.93;69.04;95989.56;12822261;23;20017;-78
2022/01/05 01:41:21;;;;;;;1.05;0.45;;;;;;;5.94;69.36;95993.78;12821535;23;20021;-78
2022/01/05 01:46:42;;;;;;;1.77;0.63;;;;;;;6.00;69.54;95987.88;12842409;23;20434;-78
2022/01/05 01:52:03;;;;;;;1.42;0.70;;;;;;;6.13;69.24;95992.06;12822697;23;20044;-78
2022/01/05 01:57:24;;;;;;;1.85;0.70;;;;;;;6.15;69.29;95992.88;12823446;23;20043;-79
2022/01/05 02:02:46;;;;;;;2.05;0.98;;;;;;;6.21;69.32;96017.44;12801683;23;20128;-78
2022/01/05 02:08:07;;;;;;;2.25;1.13;;;;;;;6.17;69.33;96009.59;12801611;23;20023;-78
2022/01/05 02:13:28;;;;;;;1.70;0.95;;;;;;;6.19;69.60;96011.78;12821379;23;20499;-78
2022/01/05 02:18:58;;;;;;;2.10;0.90;;;;;;;6.24;69.70;96019.00;12822070;23;20020;-78
2022/01/05 02:24:19;;;;;;;1.95;0.80;;;;;;;6.24;69.70;96007.91;12805434;23;20024;-78
2022/01/05 02:29:40;;;;;;;1.80;1.10;;;;;;;6.25;69.80;96025.97;12841727;23;20040;-78
2022/01/05 02:35:02;;;;;;;2.45;0.93;;;;;;;6.24;69.70;96030.06;12841904;23;20021;-78
2022/01/05 02:40:23;;;;;;;3.38;1.23;;;;;;;6.23;69.93;96045.97;12821818;23;20017;-78
2022/01/05 02:45:45;;;;;;;1.33;0.70;;;;;;;6.30;69.92;96033.19;12821437;23;20334;-78
2022/01/05 02:51:06;;;;;;;1.40;0.60;;;;;;;6.24;69.84;96022.47;12820542;23;20016;-78
2022/01/05 02:56:27;;;;;;;0.80;0.43;;;;;;;6.27;70.11;96017.78;12842133;23;20019;-78
2022/01/05 03:01:49;;;;;;;1.30;0.50;;;;;;;6.27;70.29;96009.47;12821100;23;20024;-78
2022/01/05 03:07:11;;;;;;;0.88;0.47;;;;;;;6.30;70.25;96022.13;12801410;23;20023;-79
2022/01/05 03:12:32;;;;;;;0.75;0.30;;;;;;;6.26;70.55;95994.88;12820847;23;20017;-78
2022/01/05 03:17:54;;;;;;;0.60;0.30;;;;;;;6.26;70.63;96010.78;12820379;23;20104;-78
2022/01/05 03:23:15;;;;;;;1.48;0.30;;;;;;;6.22;70.64;95991.91;12802948;23;20027;-78
2022/01/05 03:28:36;;;;;;;0.88;0.30;;;;;;;6.17;70.54;95993.00;12799189;23;20020;-78
2022/01/05 03:33:57;;;;;;;0.57;0.32;;;;;;;6.15;70.73;96006.72;12799146;23;20017;-78
2022/01/05 03:39:19;;;;;;;0.63;0.30;;;;;;;6.12;71.04;95990.63;12820751;23;20017;-78
2022/01/05 03:44:41;;;;;;;1.02;0.40;;;;;;;6.07;70.51;95997.25;12840918;23;20420;-79
2022/01/05 03:50:02;;;;;;;1.17;0.32;;;;;;;6.08;70.90;96004.97;12800015;23;20025;-78
2022/01/05 03:55:23;;;;;;;1.63;0.50;;;;;;;6.08;71.40;96016.03;12842158;23;20013;-79
2022/01/05 04:00:47;;;;;;;1.05;0.40;;;;;;;6.13;70.95;96009.38;12841684;23;20043;-79
2022/01/05 04:06:08;;;;;;;1.70;0.20;;;;;;;6.10;71.03;96015.44;12799579;23;20026;-79
2022/01/05 04:11:29;;;;;;;0.28;0.20;;;;;;;6.15;70.84;96028.16;12839971;23;20013;-79
2022/01/05 04:16:51;;;;;;;0.55;0.20;;;;;;;6.14;70.82;96027.44;12820579;23;20020;-78
2022/01/05 04:22:13;;;;;;;0.60;0.20;;;;;;;6.11;71.07;96020.38;12844853;23;20021;-78
2022/01/05 04:27:34;;;;;;;0.38;0.20;;;;;;;6.10;70.93;96032.78;12825821;23;20017;-80
2022/01/05 04:32:55;;;;;;;1.70;0.20;;;;;;;6.12;70.68;96029.41;12845416;23;20017;-79
2022/01/05 04:38:37;;;;;;;0.50;0.20;;;;;;;6.10;71.06;96035.53;12825879;23;19996;-80
2022/01/05 04:44:10;;;;;;;0.65;0.10;;;;;;;6.05;71.90;96016.53;12763286;23;20451;-79
2022/01/05 04:49:31;;;;;;;1.00;0.10;;;;;;;6.02;71.30;96013.63;12760171;23;20108;-78
2022/01/05 04:54:53;;;;;;;0.63;0.10;;;;;;;5.98;71.76;96012.69;12801263;23;20013;-78
2022/01/05 05:00:14;;;;;;;1.05;0.20;;;;;;;5.92;71.74;95999.22;12781739;23;20013;-78
2022/01/05 05:05:36;;;;;;;0.30;0.10;;;;;;;5.81;71.72;96005.47;12770709;23;20017;-79
2022/01/05 05:11:01;;;;;;;0.55;0.10;;;;;;;5.75;71.98;96010.66;12780864;23;20315;-79
2022/01/05 05:16:22;;;;;;;0.93;0.20;;;;;;;5.74;72.34;96020.28;12782118;23;20389;-80
2022/01/05 05:21:43;;;;;;;0.40;0.17;;;;;;;5.69;72.35;96008.28;12781890;23;20096;-78
2022/01/05 05:27:05;;;;;;;0.70;0.25;;;;;;;5.68;72.41;96006.09;12781942;23;20357;-78
2022/01/05 05:32:27;;;;;;;0.77;0.30;;;;;;;5.63;72.79;96016.22;12762104;23;20056;-78
2022/01/05 05:37:48;;;;;;;1.15;0.20;;;;;;;5.58;72.35;96002.72;12783524;23;20025;-79
2022/01/05 05:43:10;;;;;;;0.32;0.20;;;;;;;5.53;72.28;96004.56;12782839;23;20017;-79
2022/01/05 05:48:31;;;;;;;0.40;0.20;;;;;;;5.47;72.63;96018.03;12783826;23;20100;-78
2022/01/05 05:53:52;;;;;;;0.50;0.10;;;;;;;5.43;72.44;96003.94;12763440;23;20021;-79
2022/01/05 05:59:14;;;;;;;0.77;0.10;;;;;;;5.32;72.29;96010.22;12762525;23;20024;-78
2022/01/05 06:04:35;;;;;;;0.80;0.22;;;;;;;5.30;72.17;96010.06;12777117;23;20088;-79
2022/01/05 06:09:56;;;;;;;0.80;0.20;;;;;;;5.21;72.32;96005.38;12764736;23;20048;-78
2022/01/05 06:15:16;;;;;;;1.00;0.30;;;;;;;5.24;72.53;96004.91;12786748;23;20017;-79
2022/01/05 06:20:38;;;;;;;0.55;0.17;;;;;;;5.21;72.42;96006.13;12762360;23;20021;-78
2022/01/05 06:25:58;;;;;;;1.40;0.20;;;;;;;5.18;72.43;96010.06;12782450;23;20028;-79
2022/01/05 06:31:20;;;;;;;0.82;0.22;;;;;;;5.19;72.49;96003.22;12763341;23;20032;-78
2022/01/05 06:36:42;;;;;;;1.35;0.40;;;;;;;5.21;72.68;96006.13;12762635;23;20013;-78
2022/01/05 06:42:03;;;;;;;1.05;0.20;;;;;;;5.28;72.75;96021.03;12825699;23;20021;-78
2022/01/05 06:47:27;;;;;;;1.67;0.38;;;;;;;5.22;72.50;96026.94;12823951;23;20019;-79
2022/01/05 06:52:49;;;;;;;1.30;0.30;;;;;;;5.22;72.33;96017.91;12842820;23;20029;-80
2022/01/05 06:58:10;;;;;;;0.38;0.17;;;;;;;5.20;72.72;96015.00;12843436;23;20013;-80
2022/01/05 07:03:31;;;;;;;1.17;0.30;;;;;;;5.13;72.92;96030.53;12840222;23;20025;-80
2022/01/05 07:08:52;;;;;;;1.00;0.25;;;;;;;5.10;72.93;96045.53;12821811;23;20146;-79
2022/01/05 07:14:15;;;;;;;2.33;0.20;;;;;;;5.17;72.87;96053.63;12822242;23;20497;-80
2022/01/05 07:19:36;;;;;;;0.43;0.20;;;;;;;5.21;72.82;96053.16;12822306;23;20021;-79
2022/01/05 07:24:57;;;;;;;1.15;0.20;;;;;;;5.19;72.92;96053.00;12806347;23;20043;-80
2022/01/05 07:30:18;;;;;;;0.60;0.20;;;;;;;5.20;72.67;96050.97;12840903;23;20022;-80
2022/01/05 07:35:39;;;;;;;0.88;0.30;;;;;;;5.11;72.81;96046.97;12840228;23;20408;-79
2022/01/05 07:41:00;;;;;;;1.00;0.30;;;;;;;5.10;72.74;96056.59;12833400;23;20096;-79
2022/01/05 07:46:21;;;;;;;0.40;0.20;;;;;;;5.12;73.05;96060.22;12821206;23;20017;-79
2022/01/05 07:51:43;;;;;;;0.25;0.10;;;;;;;5.19;72.40;96050.25;12802692;23;20036;-79
2022/01/05 07:57:04;;;;;;;0.73;0.38;;;;;;;5.17;72.67;96061.19;12841551;23;20363;-79
2022/01/05 08:02:24;;;;;;;0.75;0.20;;;;;;;5.19;72.70;96064.06;12844945;23;20458;-79
2022/01/05 08:07:46;;;;;;;0.98;0.22;;;;;;;5.18;72.36;96057.09;12809793;23;20036;-81
2022/01/05 08:13:07;;;;;;;0.55;0.20;;;;;;;5.15;72.56;96059.03;12829553;23;20067;-81
2022/01/05 08:18:28;;;;;;;2.47;0.20;;;;;;;5.25;72.43;96061.69;12846228;23;20064;-80
2022/01/05 08:23:49;;;;;;;0.52;0.30;;;;;;;5.33;72.11;96058.69;12825622;23;20108;-81
2022/01/05 08:29:10;;;;;;;1.42;0.30;;;;;;;5.45;72.44;96057.38;12824952;23;20025;-80
2022/01/05 08:34:31;;;;;;;0.90;0.20;;;;;;;5.48;72.10;96066.50;12822668;23;20021;-79
2022/01/05 08:39:53;;;;;;;0.80;0.32;;;;;;;5.54;72.21;96074.47;12816994;23;20324;-79
2022/01/05 08:45:15;;;;;;;1.45;0.28;;;;;;;5.52;71.91;96054.97;12798551;23;20032;-80
2022/01/05 08:50:36;;;;;;;1.02;0.20;;;;;;;5.58;71.79;96069.88;12821368;23;20013;-80
2022/01/05 08:55:57;;;;;;;0.65;0.28;;;;;;;5.67;71.73;96093.22;12820544;23;20087;-80
2022/01/05 09:01:18;;;;;;;0.63;0.17;;;;;;;5.77;71.66;96085.53;12821135;23;20043;-80
2022/01/05 09:06:40;;;;;;;0.65;0.22;;;;;;;5.89;71.05;96093.84;12811809;23;20102;-81
2022/01/05 09:12:04;;;;;;;0.93;0.32;;;;;;;5.92;70.55;96098.19;12843635;23;20020;-79
2022/01/05 09:17:26;;;;;;;1.35;0.50;;;;;;;6.02;70.84;96101.56;12823118;23;20020;-79
2022/01/05 09:22:47;;;;;;;1.52;0.50;;;;;;;6.10;70.71;96101.31;12822485;23;20379;-78
2022/01/05 09:28:09;;;;;;;1.55;0.82;;;;;;;6.16;70.83;96107.19;12802907;23;20024;-79
2022/01/05 09:33:31;;;;;;;1.92;0.40;;;;;;;6.30;70.70;96116.34;12823736;23;20036;-79
2022/01/05 09:44:43;;;;;;;1.48;0.10;;;;;;;6.07;69.34;96174.53;12714767;23;20444;-79
2022/01/05 09:50:11;;;;;;;0.43;0.10;;;;;;;5.77;69.24;96190.75;12823511;23;20020;-79
2022/01/05 09:55:32;;;;;;;0.68;0.20;;;;;;;5.74;68.94;96178.09;12820914;23;20336;-79
2022/01/05 10:00:54;;;;;;;1.50;0.30;;;;;;;5.71;69.04;96209.75;12779990;23;20024;-78
2022/01/05 10:06:16;;;;;;;1.50;0.30;;;;;;;5.85;68.54;96202.31;12829024;23;20024;-79
2022/01/05 10:11:37;;;;;;;1.88;0.20;;;;;;;6.04;68.19;96223.53;12834051;23;20020;-80
2022/01/05 10:17:02;;;;;;;0.95;0.40;;;;;;;6.05;67.58;96249.19;12820495;23;20074;-81
2022/01/05 10:22:32;;;;;;;0.82;0.20;;;;;;;6.01;67.18;96253.19;12837249;23;20042;-81
2022/01/05 10:27:59;;;;;;;1.02;0.20;;;;;;;6.07;66.61;96279.78;12810469;23;20043;-80
2022/01/05 10:33:31;;;;;;;0.93;0.20;;;;;;;5.96;66.49;96317.94;12847892;23;20091;-78
2022/01/05 10:38:58;;;;;;;1.08;0.38;;;;;;;5.90;67.15;96314.06;12822589;23;20021;-77
2022/01/05 10:44:21;;;;;;;1.63;0.20;;;;;;;5.86;66.80;96322.84;12819498;23;20025;-78
2022/01/05 10:49:42;;;;;;;0.95;0.30;;;;;;;5.84;67.35;96317.16;12838438;23;20044;-78
2022/01/05 10:55:13;;;;;;;0.98;0.20;;;;;;;5.86;66.14;96336.69;12797687;23;20086;-80
2022/01/05 11:01:02;;;;;;;0.43;0.20;;;;;;;5.94;66.42;96320.59;12822108;23;20086;-80
2022/01/05 11:06:23;;;;;;;1.60;0.20;;;;;;;6.02;65.27;96353.63;12870043;23;20016;-78
2022/01/05 11:11:44;;;;;;;0.82;0.20;;;;;;;5.96;64.82;96364.31;12840474;23;20021;-79
2022/01/05 11:17:05;;;;;;;1.05;0.20;;;;;;;5.90;63.90;96386.06;12820497;23;20312;-78
2022/01/05 11:22:27;;;;;;;1.55;0.70;;;;;;;5.90;63.67;96389.59;12840983;23;20339;-79
2022/01/05 11:27:48;;;;;;;2.75;0.40;;;;;;;5.90;64.38;96370.22;12799046;23;20024;-79
2022/01/05 11:33:09;;;;;;;2.80;0.80;;;;;;;6.22;64.19;96393.66;12840794;23;20020;-79
2022/01/05 11:38:31;;;;;;;2.38;0.88;;;;;;;6.64;62.71;96402.41;12820784;23;20027;-79
2022/01/05 11:43:51;;;;;;;2.13;0.52;;;;;;;6.91;62.53;96401.97;12821782;23;20017;-75
2022/01/05 11:49:15;;;;;;;3.70;0.50;;;;;;;7.06;61.43;96391.13;12820989;23;20043;-77
2022/01/05 11:54:36;;;;;;;3.13;0.60;;;;;;;7.29;60.37;96389.63;12800065;23;20064;-78
2022/01/05 12:00:23;;;;;;;4.60;0.80;;;;;;;7.44;56.99;96397.47;12839700;23;20017;-78
2022/01/05 12:06:08;;;;;;;4.00;0.85;;;;;;;7.09;58.85;96401.00;12820209;23;20339;-77
2022/01/05 12:11:33;;;;;;;2.78;0.60;;;;;;;6.97;59.42;96405.13;12821353;23;20082;-77
2022/01/05 12:17:01;;;;;;;2.00;0.70;;;;;;;7.22;58.71;96390.59;12840398;23;20043;-76
2022/01/05 12:22:24;;;;;;;3.17;0.40;;;;;;;6.97;57.86;96388.47;12860214;23;20017;-77
2022/01/05 12:27:53;;;;;;;2.42;0.70;;;;;;;6.58;58.93;96391.69;12840229;23;20335;-76
2022/01/05 12:33:16;;;;;;;2.97;0.73;;;;;;;6.28;57.34;96396.81;12820431;23;20444;-77
2022/01/05 12:38:42;;;;;;;4.30;1.00;;;;;;;6.13;57.95;96407.63;12821867;23;20059;-76
2022/01/05 12:44:30;;;;;;;3.20;1.10;;;;;;;6.08;57.39;96416.97;12802799;23;20024;-78
2022/01/05 12:49:51;;;;;;;3.08;1.40;;;;;;;6.21;57.11;96433.06;12865068;23;20021;-78
2022/01/05 12:55:13;;;;;;;3.85;0.68;;;;;;;6.11;54.99;96435.91;12844202;23;20435;-78
2022/01/05 13:00:35;;;;;;;2.40;0.95;;;;;;;5.92;55.60;96455.47;12843414;23;20016;-78
2022/01/05 13:06:18;;;;;;;3.70;0.60;;;;;;;5.88;55.24;96450.34;12823084;23;20392;-76
2022/01/05 13:11:40;;;;;;;2.38;0.52;;;;;;;5.83;54.83;96443.13;12823812;23;20019;-76
2022/01/05 13:17:05;;;;;;;2.88;0.60;;;;;;;5.77;54.15;96439.94;12844002;23;20344;-77
2022/01/05 13:22:35;;;;;;;3.38;0.73;;;;;;;5.70;53.30;96452.69;12863424;23;20017;-77
2022/01/05 13:28:03;;;;;;;4.28;0.90;;;;;;;5.63;53.85;96456.38;12824504;23;20019;-77
2022/01/05 13:33:24;;;;;;;2.42;0.80;;;;;;;5.50;51.21;96470.72;12822735;23;20016;-77
2022/01/05 13:38:49;;;;;;;2.60;0.55;;;;;;;5.31;51.84;96481.91;12822332;23;20078;-77
2022/01/05 13:44:10;;;;;;;2.45;0.50;;;;;;;5.04;51.97;96466.28;12780821;23;20040;-77
2022/01/05 13:49:32;;;;;;;1.65;0.40;;;;;;;4.81;51.59;96497.19;12820647;23;20025;-77
2022/01/05 13:54:53;;;;;;;1.25;0.50;;;;;;;4.71;51.87;96493.00;12842070;23;20013;-77
2022/01/05 14:00:15;;;;;;;2.58;0.60;;;;;;;4.76;51.75;96511.34;12820775;23;20023;-77
2022/01/05 14:05:37;;;;;;;3.15;0.70;;;;;;;4.74;51.20;96511.94;12821216;23;20020;-77
2022/01/05 14:11:13;;;;;;;1.77;0.63;;;;;;;4.69;50.74;96506.69;12841468;23;20017;-77
2022/01/05 14:16:44;;;;;;;3.00;0.82;;;;;;;4.64;51.46;96519.53;12842688;23;20085;-77
2022/01/05 14:22:06;;;;;;;2.53;0.75;;;;;;;4.52;50.78;96519.38;12781832;23;20040;-77
2022/01/05 14:27:27;;;;;;;2.85;0.60;;;;;;;4.45;50.47;96534.09;12841599;23;20020;-77
2022/01/05 14:32:48;;;;;;;2.28;0.60;;;;;;;4.39;50.58;96544.69;12800642;23;20020;-77
2022/01/05 14:38:10;;;;;;;3.75;1.15;;;;;;;4.37;50.70;96543.84;12821035;23;20012;-77
2022/01/05 14:43:30;;;;;;;2.88;0.80;;;;;;;4.29;51.28;96543.97;12820910;23;20095;-77
2022/01/05 14:48:52;;;;;;;2.92;0.88;;;;;;;4.21;50.94;96555.16;12841939;23;20064;-77
2022/01/05 14:54:13;;;;;;;2.65;0.80;;;;;;;4.07;51.32;96584.50;12800629;23;20021;-77
2022/01/05 14:59:34;;;;;;;2.72;1.00;;;;;;;3.94;51.02;96562.81;12840356;23;20305;-76
2022/01/05 15:04:55;;;;;;;2.15;0.80;;;;;;;3.79;51.21;96576.91;12833304;23;20017;-77
2022/01/05 15:10:18;;;;;;;3.70;0.60;;;;;;;3.69;51.05;96555.53;12800219;23;20024;-78
2022/01/05 15:15:40;;;;;;;2.47;0.85;;;;;;;3.59;50.97;96590.63;12799557;23;20028;-76
2022/01/05 15:21:01;;;;;;;3.63;1.27;;;;;;;3.49;51.50;96589.88;12841454;23;20094;-77
2022/01/05 15:26:22;;;;;;;3.45;0.77;;;;;;;3.29;51.16;96594.59;12799898;23;20051;-76
2022/01/05 15:31:43;;;;;;;4.45;1.13;;;;;;;3.13;52.29;96594.06;12819663;23;20375;-77
2022/01/05 15:37:04;;;;;;;3.80;0.80;;;;;;;3.03;51.87;96596.03;12799326;23;20325;-79
2022/01/05 15:42:25;;;;;;;3.38;0.88;;;;;;;2.96;52.57;96604.41;12819667;23;20020;-78
2022/01/05 15:47:46;;;;;;;4.13;0.77;;;;;;;2.91;51.96;96610.91;12840701;23;20016;-77
2022/01/05 15:53:09;;;;;;;3.55;0.80;;;;;;;2.84;52.34;96624.19;12819930;23;20032;-77
2022/01/05 16:04:12;;;;;;;6.20;1.20;;;;;;;2.85;53.16;96594.59;12773676;23;20024;-77
2022/01/05 16:09:33;;;;;;;6.18;1.83;;;;;;;2.80;53.39;96601.84;12846909;23;20101;-78
2022/01/05 16:14:54;;;;;;;4.60;0.75;;;;;;;2.79;53.32;96605.16;12818405;23;20016;-78
2022/01/05 16:20:15;;;;;;;4.70;1.00;;;;;;;2.84;53.75;96601.44;12829393;23;20072;-81
2022/01/05 16:25:37;;;;;;;5.03;0.85;;;;;;;2.75;54.51;96604.84;12818450;23;20023;-80
2022/01/05 16:30:58;;;;;;;4.97;1.30;;;;;;;2.75;54.49;96616.59;12851522;23;20020;-81
2022/01/05 16:36:23;;;;;;;3.95;0.73;;;;;;;2.81;54.36;96614.31;12857661;23;20044;-81
2022/01/05 16:41:45;;;;;;;5.93;0.90;;;;;;;2.86;54.03;96623.63;12829369;23;20016;-80
2022/01/05 16:47:06;;;;;;;3.95;0.90;;;;;;;2.87;54.23;96616.81;12810917;23;20032;-80
2022/01/05 16:52:27;;;;;;;4.28;0.75;;;;;;;2.88;55.14;96615.50;12859940;23;20017;-80
2022/01/05 17:03:30;;;;;;;6.25;1.55;;;;;;;2.96;54.60;96635.44;12835087;23;20119;-80
2022/01/05 17:08:51;;;;;;;8.25;1.27;;;;;;;2.85;54.97;96631.16;12825353;23;20017;-79
2022/01/05 17:14:12;;;;;;;3.33;1.25;;;;;;;2.85;55.47;96631.16;12840748;23;20017;-78
2022/01/05 17:19:34;;;;;;;3.45;1.10;;;;;;;2.86;55.32;96640.91;12849623;23;20039;-79
2022/01/05 17:24:55;;;;;;;6.05;1.15;;;;;;;2.93;55.83;96658.66;12792225;23;20017;-79
2022/01/05 17:30:16;;;;;;;4.22;0.98;;;;;;;3.01;56.02;96664.81;12782960;23;20088;-79
2022/01/05 17:35:37;;;;;;;4.57;0.80;;;;;;;3.08;55.68;96649.44;12807478;23;20070;-81
2022/01/05 17:40:59;;;;;;;2.97;1.00;;;;;;;3.11;55.87;96651.09;12810115;23;20293;-79
2022/01/05 17:46:20;;;;;;;4.32;0.98;;;;;;;3.16;56.51;96659.09;12823012;23;20039;-78
2022/01/05 17:51:42;;;;;;;5.82;1.23;;;;;;;3.22;56.52;96664.34;12856195;23;20069;-80
2022/01/05 17:57:04;;;;;;;4.95;0.90;;;;;;;3.23;56.17;96682.34;12732411;23;20028;-79
2022/01/05 18:02:27;;;;;;;4.00;0.93;;;;;;;3.13;56.48;96673.28;12736077;23;20013;-80
2022/01/05 18:07:49;;;;;;;7.18;1.40;;;;;;;3.05;56.87;96676.13;12748150;23;20356;-79
2022/01/05 18:13:10;;;;;;;4.50;1.00;;;;;;;3.09;56.79;96687.50;12752569;23;20436;-79
2022/01/05 18:18:31;;;;;;;4.53;0.90;;;;;;;3.08;56.85;96701.84;12768074;23;20016;-79
2022/01/05 18:23:52;;;;;;;5.85;0.93;;;;;;;3.02;57.30;96701.38;12789003;23;20064;-79
2022/01/05 18:29:13;;;;;;;4.05;0.90;;;;;;;2.96;57.22;96707.13;12775517;23;20068;-81
2022/01/05 18:34:35;;;;;;;4.15;1.00;;;;;;;3.01;57.04;96710.94;12792870;23;20037;-80
2022/01/05 18:39:58;;;;;;;6.45;1.77;;;;;;;2.95;57.61;96708.41;12766491;23;20092;-79
2022/01/05 18:45:25;;;;;;;4.07;1.27;;;;;;;2.86;58.00;96725.59;12768296;23;20036;-81
2022/01/05 18:50:46;;;;;;;4.30;1.10;;;;;;;2.79;58.37;96709.88;12787466;23;20021;-77
2022/01/05 18:56:07;;;;;;;5.65;1.00;;;;;;;2.63;58.58;96716.84;12739869;23;20013;-78
2022/01/05 19:01:28;;;;;;;6.28;1.58;;;;;;;2.53;58.91;96725.03;12761310;23;20085;-80
2022/01/05 19:06:50;;;;;;;4.13;1.10;;;;;;;2.46;59.00;96712.78;12808974;23;20024;-79
2022/01/05 19:12:11;;;;;;;6.20;1.67;;;;;;;2.44;59.74;96714.66;12761229;23;20040;-79
2022/01/05 19:17:32;;;;;;;7.05;1.95;;;;;;;2.43;59.80;96737.97;12779345;23;20444;-79
2022/01/05 19:22:53;;;;;;;6.63;1.90;;;;;;;2.45;59.92;96741.63;12778173;23;20020;-78
2022/01/05 19:28:20;;;;;;;4.75;1.10;;;;;;;2.37;60.41;96738.19;12738236;23;20028;-79
2022/01/05 19:33:47;;;;;;;5.07;1.35;;;;;;;2.39;60.42;96734.88;12741835;23;20027;-78
2022/01/05 19:39:07;;;;;;;3.97;1.00;;;;;;;2.36;60.55;96736.00;12737586;23;20039;-78
2022/01/05 19:44:28;;;;;;;5.55;1.10;;;;;;;2.29;60.68;96745.78;12740135;23;20017;-79
2022/01/05 19:49:53;;;;;;;4.28;0.95;;;;;;;2.29;60.58;96732.75;12760607;23;20013;-78
2022/01/05 19:55:26;;;;;;;4.07;0.98;;;;;;;2.30;61.22;96755.50;12737934;23;20044;-78
2022/01/05 20:00:47;;;;;;;3.50;0.80;;;;;;;2.27;61.80;96759.41;12738661;23;20023;-78
2022/01/05 20:06:11;;;;;;;4.22;1.08;;;;;;;2.34;61.37;96750.34;12756997;23;20020;-78
2022/01/05 20:11:32;;;;;;;5.60;1.70;;;;;;;2.37;61.01;96754.00;12757911;23;20104;-78
2022/01/05 20:16:54;;;;;;;5.03;1.33;;;;;;;2.43;61.41;96760.00;12757476;23;20076;-78
2022/01/05 20:22:15;;;;;;;4.28;1.08;;;;;;;2.39;61.47;96767.94;12757463;23;20566;-78
2022/01/05 20:27:36;;;;;;;3.75;1.10;;;;;;;2.30;61.47;96772.03;12737155;23;20021;-78
2022/01/05 20:32:59;;;;;;;5.10;1.00;;;;;;;2.26;61.94;96763.44;12757432;23;20474;-78
2022/01/05 20:38:20;;;;;;;6.10;1.30;;;;;;;2.20;61.88;96766.41;12758317;23;20025;-78
2022/01/05 20:43:44;;;;;;;6.63;1.70;;;;;;;2.07;62.42;96772.19;12760648;23;20085;-77
2022/01/05 20:49:07;;;;;;;4.53;0.98;;;;;;;2.07;62.54;96779.72;12758131;23;20020;-78
2022/01/05 20:54:28;;;;;;;7.05;1.35;;;;;;;2.07;62.17;96796.25;12738562;23;20332;-77
2022/01/05 20:59:49;;;;;;;3.88;1.10;;;;;;;2.10;62.45;96792.38;12739019;23;20013;-77
2022/01/05 21:05:11;;;;;;;4.28;0.95;;;;;;;2.11;62.84;96777.31;12715883;23;20440;-77
2022/01/05 21:10:32;;;;;;;5.22;1.50;;;;;;;2.20;62.93;96785.69;12761388;23;20372;-77
2022/01/05 21:15:53;;;;;;;5.78;1.00;;;;;;;2.39;62.72;96779.69;12761361;23;20017;-77
2022/01/05 21:21:15;;;;;;;6.05;2.13;;;;;;;2.56;62.21;96768.69;12776743;23;20037;-80
2022/01/05 21:26:35;;;;;;;3.88;1.45;;;;;;;2.56;62.68;96776.97;12767962;23;20452;-80
2022/01/05 21:31:56;;;;;;;5.38;1.50;;;;;;;2.63;62.59;96780.22;12799071;23;20065;-80
2022/01/05 21:37:17;;;;;;;5.35;1.52;;;;;;;2.73;62.48;96778.31;12792134;23;20017;-80
2022/01/05 21:42:40;;;;;;;5.43;1.58;;;;;;;2.76;62.10;96774.41;12795101;23;20005;-80
2022/01/05 21:48:01;;;;;;;5.60;1.20;;;;;;;2.74;62.51;96772.22;12796309;23;20024;-82
2022/01/05 21:53:22;;;;;;;7.75;1.80;;;;;;;2.73;62.03;96784.53;12788999;23;20017;-81
2022/01/05 21:58:43;;;;;;;5.43;1.77;;;;;;;2.71;62.42;96787.13;12738789;23;20364;-80
2022/01/05 22:04:04;;;;;;;5.32;1.40;;;;;;;2.56;62.88;96787.25;12760704;23;20072;-79
2022/01/05 22:09:25;;;;;;;4.80;0.93;;;;;;;2.59;62.87;96781.34;12761953;23;20087;-79
2022/01/05 22:14:46;;;;;;;4.22;1.33;;;;;;;2.73;62.43;96803.09;12740703;23;20028;-79
2022/01/05 22:20:08;;;;;;;6.43;1.38;;;;;;;2.77;62.42;96771.06;12738677;23;20078;-79
2022/01/05 22:25:29;;;;;;;6.07;1.30;;;;;;;2.78;62.65;96793.84;12783346;23;20096;-79
2022/01/05 22:30:50;;;;;;;4.65;1.15;;;;;;;2.82;62.95;96785.94;12777460;23;20088;-79
2022/01/05 22:36:12;;;;;;;4.47;1.08;;;;;;;2.80;62.75;96789.25;12740706;23;20024;-79
2022/01/05 22:41:33;;;;;;;8.10;1.38;;;;;;;2.83;62.56;96792.91;12779857;23;20013;-79
2022/01/05 22:46:54;;;;;;;5.75;1.67;;;;;;;2.81;63.08;96806.53;12740490;23;20028;-79
2022/01/05 22:52:15;;;;;;;4.20;1.00;;;;;;;2.84;62.90;96816.41;12719395;23;20438;-79
2022/01/05 22:57:55;;;;;;;4.63;1.60;;;;;;;2.87;62.76;96818.03;12746911;23;20021;-79
2022/01/05 23:03:16;;;;;;;2.30;0.70;;;;;;;2.93;62.66;96829.56;12739258;23;20021;-79
2022/01/05 23:08:37;;;;;;;5.20;1.33;;;;;;;2.93;62.95;96828.84;12740645;23;20017;-79
2022/01/05 23:13:59;;;;;;;4.22;0.98;;;;;;;2.92;62.70;96819.09;12760127;23;20096;-79
2022/01/05 23:19:20;;;;;;;3.63;0.93;;;;;;;2.94;63.03;96816.50;12760314;23;20024;-79
2022/01/05 23:24:41;;;;;;;6.32;1.10;;;;;;;2.86;62.92;96825.56;12739057;23;20236;-79
2022/01/05 23:30:04;;;;;;;5.20;1.08;;;;;;;2.87;63.85;96842.84;12738560;23;20439;-79
2022/01/05 23:35:26;;;;;;;5.10;0.88;;;;;;;2.90;63.75;96832.72;12758972;23;20024;-79
2022/01/05 23:40:47;;;;;;;5.30;1.05;;;;;;;2.93;63.04;96842.63;12738773;23;20025;-79
2022/01/05 23:46:08;;;;;;;5.35;1.25;;;;;;;2.95;63.32;96846.25;12759614;23;20093;-79
2022/01/05 23:51:30;;;;;;;5.18;1.00;;;;;;;2.95;63.31;96843.50;12738792;23;20380;-79
2022/01/05 23:56:51;;;;;;;5.38;1.13;;;;;;;2.93;63.59;96835.06;12778951;23;20452;-79
